sensor_id;sensor_type;location;lat;lon;timestamp;P1;durP1;ratioP1;P2;durP2;ratioP2
67363;SDS011;54250;45.572;38.086;2022-09-03T00:04:24;8.38;;;0.82;;
67363;SDS011;54250;45.572;38.086;2022-09-03T00:07:07;7.43;;;0.70;;
67363;SDS011;54250;45.572;38.086;2022-09-03T00:09:42;5.28;;;0.80;;
67363;SDS011;54250;45.572;38.086;2022-09-03T00:12:18;1.38;;;0.70;;
67363;SDS011;54250;45.572;38.086;2022-09-03T00:14:50;2.42;;;0.82;;
67363;SDS011;54250;45.572;38.086;2022-09-03T00:17:41;0.80;;;0.57;;
67363;SDS011;54250;45.572;38.086;2022-09-03T00:20:26;7.97;;;0.90;;
67363;SDS011;54250;45.572;38.086;2022-09-03T00:23:03;0.80;;;0.68;;
67363;SDS011;54250;45.572;38.086;2022-09-03T00:25:42;7.80;;;0.93;;
67363;SDS011;54250;45.572;38.086;2022-09-03T00:28:14;9.27;;;1.27;;
67363;SDS011;54250;45.572;38.086;2022-09-03T00:30:44;5.47;;;0.80;;
67363;SDS011;54250;45.572;38.086;2022-09-03T00:33:20;1.73;;;0.90;;
67363;SDS011;54250;45.572;38.086;2022-09-03T00:35:53;2.90;;;1.00;;
67363;SDS011;54250;45.572;38.086;2022-09-03T00:38:35;7.85;;;1.05;;
67363;SDS011;54250;45.572;38.086;2022-09-03T00:43:45;5.07;;;0.70;;
67363;SDS011;54250;45.572;38.086;2022-09-03T00:46:25;4.18;;;0.80;;
67363;SDS011;54250;45.572;38.086;2022-09-03T00:49:18;8.68;;;1.02;;
67363;SDS011;54250;45.572;38.086;2022-09-03T01:10:16;1.42;;;0.70;;
67363;SDS011;54250;45.572;38.086;2022-09-03T01:26:27;3.13;;;0.60;;
67363;SDS011;54250;45.572;38.086;2022-09-03T01:29:19;2.40;;;0.75;;
67363;SDS011;54250;45.572;38.086;2022-09-03T01:32:18;8.60;;;1.05;;
67363;SDS011;54250;45.572;38.086;2022-09-03T01:35:18;7.63;;;0.75;;
67363;SDS011;54250;45.572;38.086;2022-09-03T01:43:54;4.70;;;0.70;;
67363;SDS011;54250;45.572;38.086;2022-09-03T01:46:23;4.93;;;0.77;;
67363;SDS011;54250;45.572;38.086;2022-09-03T01:49:02;1.20;;;0.75;;
67363;SDS011;54250;45.572;38.086;2022-09-03T01:51:30;9.18;;;1.02;;
67363;SDS011;54250;45.572;38.086;2022-09-03T02:00:00;9.70;;;1.00;;
67363;SDS011;54250;45.572;38.086;2022-09-03T02:02:38;2.88;;;1.10;;
67363;SDS011;54250;45.572;38.086;2022-09-03T02:07:37;9.07;;;0.73;;
67363;SDS011;54250;45.572;38.086;2022-09-03T02:10:07;11.55;;;1.17;;
67363;SDS011;54250;45.572;38.086;2022-09-03T02:12:39;3.30;;;0.80;;
67363;SDS011;54250;45.572;38.086;2022-09-03T02:15:10;6.00;;;1.08;;
67363;SDS011;54250;45.572;38.086;2022-09-03T02:17:42;2.50;;;0.70;;
67363;SDS011;54250;45.572;38.086;2022-09-03T02:20:12;5.20;;;1.08;;
67363;SDS011;54250;45.572;38.086;2022-09-03T02:22:44;8.82;;;1.20;;
67363;SDS011;54250;45.572;38.086;2022-09-03T02:25:11;8.38;;;0.93;;
67363;SDS011;54250;45.572;38.086;2022-09-03T02:27:38;7.03;;;0.90;;
67363;SDS011;54250;45.572;38.086;2022-09-03T02:30:05;3.67;;;0.90;;
67363;SDS011;54250;45.572;38.086;2022-09-03T02:32:31;7.18;;;0.90;;
67363;SDS011;54250;45.572;38.086;2022-09-03T02:34:58;6.90;;;1.00;;
67363;SDS011;54250;45.572;38.086;2022-09-03T02:37:24;5.03;;;0.93;;
67363;SDS011;54250;45.572;38.086;2022-09-03T02:39:51;2.50;;;0.90;;
67363;SDS011;54250;45.572;38.086;2022-09-03T02:42:17;2.47;;;1.00;;
67363;SDS011;54250;45.572;38.086;2022-09-03T02:44:49;8.07;;;0.85;;
67363;SDS011;54250;45.572;38.086;2022-09-03T02:47:19;19.60;;;1.13;;
67363;SDS011;54250;45.572;38.086;2022-09-03T02:49:47;4.38;;;0.90;;
67363;SDS011;54250;45.572;38.086;2022-09-03T02:52:13;0.98;;;0.60;;
67363;SDS011;54250;45.572;38.086;2022-09-03T02:54:39;7.25;;;1.15;;
67363;SDS011;54250;45.572;38.086;2022-09-03T02:57:07;3.15;;;0.65;;
67363;SDS011;54250;45.572;38.086;2022-09-03T02:59:34;3.00;;;0.70;;
67363;SDS011;54250;45.572;38.086;2022-09-03T03:02:01;6.40;;;1.20;;
67363;SDS011;54250;45.572;38.086;2022-09-03T03:04:28;5.72;;;0.77;;
67363;SDS011;54250;45.572;38.086;2022-09-03T03:06:55;5.78;;;0.75;;
67363;SDS011;54250;45.572;38.086;2022-09-03T03:09:21;5.38;;;0.70;;
67363;SDS011;54250;45.572;38.086;2022-09-03T03:11:47;4.05;;;0.85;;
67363;SDS011;54250;45.572;38.086;2022-09-03T03:14:14;3.25;;;0.95;;
67363;SDS011;54250;45.572;38.086;2022-09-03T03:16:41;1.95;;;1.00;;
67363;SDS011;54250;45.572;38.086;2022-09-03T03:19:07;2.05;;;0.75;;
67363;SDS011;54250;45.572;38.086;2022-09-03T03:21:33;4.82;;;0.80;;
67363;SDS011;54250;45.572;38.086;2022-09-03T03:24:00;1.15;;;0.70;;
67363;SDS011;54250;45.572;38.086;2022-09-03T03:26:26;13.25;;;1.02;;
67363;SDS011;54250;45.572;38.086;2022-09-03T03:28:56;6.75;;;0.90;;
67363;SDS011;54250;45.572;38.086;2022-09-03T03:31:25;4.00;;;1.10;;
67363;SDS011;54250;45.572;38.086;2022-09-03T03:33:55;5.78;;;1.10;;
67363;SDS011;54250;45.572;38.086;2022-09-03T03:36:25;7.93;;;0.88;;
67363;SDS011;54250;45.572;38.086;2022-09-03T03:38:53;3.95;;;1.27;;
67363;SDS011;54250;45.572;38.086;2022-09-03T03:41:21;5.78;;;0.80;;
67363;SDS011;54250;45.572;38.086;2022-09-03T03:43:53;6.82;;;0.95;;
67363;SDS011;54250;45.572;38.086;2022-09-03T03:46:21;2.20;;;0.75;;
67363;SDS011;54250;45.572;38.086;2022-09-03T03:48:48;11.80;;;0.82;;
67363;SDS011;54250;45.572;38.086;2022-09-03T03:51:18;8.13;;;1.17;;
67363;SDS011;54250;45.572;38.086;2022-09-03T03:53:44;4.07;;;0.80;;
67363;SDS011;54250;45.572;38.086;2022-09-03T03:56:12;5.80;;;0.90;;
67363;SDS011;54250;45.572;38.086;2022-09-03T03:58:39;15.00;;;0.98;;
67363;SDS011;54250;45.572;38.086;2022-09-03T04:01:13;1.40;;;1.00;;
67363;SDS011;54250;45.572;38.086;2022-09-03T04:03:50;4.28;;;0.65;;
67363;SDS011;54250;45.572;38.086;2022-09-03T04:06:17;1.88;;;0.70;;
67363;SDS011;54250;45.572;38.086;2022-09-03T04:08:46;2.05;;;1.17;;
67363;SDS011;54250;45.572;38.086;2022-09-03T04:11:15;6.50;;;1.33;;
67363;SDS011;54250;45.572;38.086;2022-09-03T04:13:43;3.28;;;1.15;;
67363;SDS011;54250;45.572;38.086;2022-09-03T04:16:26;5.57;;;0.85;;
67363;SDS011;54250;45.572;38.086;2022-09-03T04:18:53;9.65;;;1.35;;
67363;SDS011;54250;45.572;38.086;2022-09-03T04:21:25;5.35;;;0.77;;
67363;SDS011;54250;45.572;38.086;2022-09-03T04:23:53;8.02;;;1.10;;
67363;SDS011;54250;45.572;38.086;2022-09-03T04:26:24;3.00;;;0.80;;
67363;SDS011;54250;45.572;38.086;2022-09-03T04:28:55;1.08;;;0.68;;
67363;SDS011;54250;45.572;38.086;2022-09-03T04:31:22;6.05;;;0.90;;
67363;SDS011;54250;45.572;38.086;2022-09-03T04:33:48;1.77;;;0.70;;
67363;SDS011;54250;45.572;38.086;2022-09-03T04:36:19;7.43;;;1.05;;
67363;SDS011;54250;45.572;38.086;2022-09-03T04:38:47;9.48;;;0.80;;
67363;SDS011;54250;45.572;38.086;2022-09-03T04:41:25;8.18;;;1.90;;
67363;SDS011;54250;45.572;38.086;2022-09-03T04:43:53;1.70;;;0.70;;
67363;SDS011;54250;45.572;38.086;2022-09-03T04:46:22;4.13;;;0.90;;
67363;SDS011;54250;45.572;38.086;2022-09-03T04:48:51;4.28;;;0.90;;
67363;SDS011;54250;45.572;38.086;2022-09-03T04:51:19;26.30;;;1.50;;
67363;SDS011;54250;45.572;38.086;2022-09-03T04:53:51;0.63;;;0.52;;
67363;SDS011;54250;45.572;38.086;2022-09-03T04:56:26;12.80;;;1.23;;
67363;SDS011;54250;45.572;38.086;2022-09-03T04:58:55;3.53;;;0.52;;
67363;SDS011;54250;45.572;38.086;2022-09-03T05:01:26;8.75;;;0.80;;
67363;SDS011;54250;45.572;38.086;2022-09-03T05:03:57;8.68;;;1.05;;
67363;SDS011;54250;45.572;38.086;2022-09-03T05:06:24;8.18;;;0.88;;
67363;SDS011;54250;45.572;38.086;2022-09-03T05:08:52;1.50;;;0.90;;
67363;SDS011;54250;45.572;38.086;2022-09-03T05:11:18;3.70;;;0.68;;
67363;SDS011;54250;45.572;38.086;2022-09-03T05:13:48;6.00;;;0.82;;
67363;SDS011;54250;45.572;38.086;2022-09-03T05:16:16;16.33;;;1.55;;
67363;SDS011;54250;45.572;38.086;2022-09-03T05:18:43;2.38;;;0.80;;
67363;SDS011;54250;45.572;38.086;2022-09-03T05:21:11;9.25;;;1.45;;
67363;SDS011;54250;45.572;38.086;2022-09-03T05:23:40;9.10;;;2.45;;
67363;SDS011;54250;45.572;38.086;2022-09-03T05:26:08;3.80;;;1.40;;
67363;SDS011;54250;45.572;38.086;2022-09-03T05:28:37;7.45;;;1.02;;
67363;SDS011;54250;45.572;38.086;2022-09-03T05:31:06;2.03;;;0.77;;
67363;SDS011;54250;45.572;38.086;2022-09-03T05:33:37;14.35;;;1.10;;
67363;SDS011;54250;45.572;38.086;2022-09-03T05:36:15;3.72;;;0.93;;
67363;SDS011;54250;45.572;38.086;2022-09-03T05:38:43;7.57;;;0.95;;
67363;SDS011;54250;45.572;38.086;2022-09-03T05:41:10;0.70;;;0.60;;
67363;SDS011;54250;45.572;38.086;2022-09-03T05:43:39;5.18;;;2.30;;
67363;SDS011;54250;45.572;38.086;2022-09-03T05:46:09;2.40;;;1.67;;
67363;SDS011;54250;45.572;38.086;2022-09-03T05:48:38;5.15;;;1.30;;
67363;SDS011;54250;45.572;38.086;2022-09-03T05:51:06;1.90;;;0.80;;
67363;SDS011;54250;45.572;38.086;2022-09-03T05:53:43;11.15;;;3.05;;
67363;SDS011;54250;45.572;38.086;2022-09-03T05:56:14;5.45;;;1.10;;
67363;SDS011;54250;45.572;38.086;2022-09-03T05:58:43;16.67;;;1.73;;
67363;SDS011;54250;45.572;38.086;2022-09-03T06:03:43;4.07;;;1.00;;
67363;SDS011;54250;45.572;38.086;2022-09-03T06:06:10;8.65;;;0.90;;
67363;SDS011;54250;45.572;38.086;2022-09-03T06:08:38;2.92;;;1.50;;
67363;SDS011;54250;45.572;38.086;2022-09-03T06:11:05;6.15;;;1.73;;
67363;SDS011;54250;45.572;38.086;2022-09-03T06:13:33;4.75;;;0.80;;
67363;SDS011;54250;45.572;38.086;2022-09-03T06:16:01;4.95;;;1.33;;
67363;SDS011;54250;45.572;38.086;2022-09-03T06:18:29;1.75;;;0.52;;
67363;SDS011;54250;45.572;38.086;2022-09-03T06:20:56;1.90;;;0.85;;
67363;SDS011;54250;45.572;38.086;2022-09-03T06:23:23;3.42;;;1.00;;
67363;SDS011;54250;45.572;38.086;2022-09-03T06:25:59;19.52;;;1.75;;
67363;SDS011;54250;45.572;38.086;2022-09-03T06:28:27;6.72;;;0.85;;
67363;SDS011;54250;45.572;38.086;2022-09-03T06:30:56;8.13;;;1.10;;
67363;SDS011;54250;45.572;38.086;2022-09-03T06:33:22;8.77;;;1.40;;
67363;SDS011;54250;45.572;38.086;2022-09-03T06:35:58;6.38;;;0.93;;
67363;SDS011;54250;45.572;38.086;2022-09-03T06:38:26;6.38;;;0.93;;
67363;SDS011;54250;45.572;38.086;2022-09-03T06:40:54;4.25;;;0.88;;
67363;SDS011;54250;45.572;38.086;2022-09-03T06:43:22;2.17;;;1.00;;
67363;SDS011;54250;45.572;38.086;2022-09-03T06:45:58;4.55;;;2.95;;
67363;SDS011;54250;45.572;38.086;2022-09-03T06:48:26;23.65;;;2.33;;
67363;SDS011;54250;45.572;38.086;2022-09-03T06:50:55;6.55;;;2.03;;
67363;SDS011;54250;45.572;38.086;2022-09-03T06:53:28;8.40;;;2.42;;
67363;SDS011;54250;45.572;38.086;2022-09-03T06:55:59;9.55;;;1.65;;
67363;SDS011;54250;45.572;38.086;2022-09-03T06:58:31;10.70;;;1.25;;
67363;SDS011;54250;45.572;38.086;2022-09-03T07:01:04;4.70;;;1.10;;
67363;SDS011;54250;45.572;38.086;2022-09-03T07:03:35;10.40;;;1.95;;
67363;SDS011;54250;45.572;38.086;2022-09-03T07:06:02;4.50;;;1.33;;
67363;SDS011;54250;45.572;38.086;2022-09-03T07:08:33;10.55;;;1.20;;
67363;SDS011;54250;45.572;38.086;2022-09-03T07:11:01;9.38;;;1.20;;
67363;SDS011;54250;45.572;38.086;2022-09-03T07:13:30;3.97;;;1.38;;
67363;SDS011;54250;45.572;38.086;2022-09-03T07:16:01;8.48;;;1.75;;
67363;SDS011;54250;45.572;38.086;2022-09-03T07:18:32;11.40;;;4.32;;
67363;SDS011;54250;45.572;38.086;2022-09-03T07:20:59;13.30;;;5.25;;
67363;SDS011;54250;45.572;38.086;2022-09-03T07:23:27;3.95;;;1.60;;
67363;SDS011;54250;45.572;38.086;2022-09-03T07:25:58;6.22;;;1.42;;
67363;SDS011;54250;45.572;38.086;2022-09-03T07:28:26;8.98;;;1.50;;
67363;SDS011;54250;45.572;38.086;2022-09-03T07:30:53;7.05;;;1.20;;
67363;SDS011;54250;45.572;38.086;2022-09-03T07:33:27;10.57;;;1.30;;
67363;SDS011;54250;45.572;38.086;2022-09-03T07:35:54;16.98;;;1.20;;
67363;SDS011;54250;45.572;38.086;2022-09-03T07:38:20;12.30;;;0.98;;
67363;SDS011;54250;45.572;38.086;2022-09-03T07:40:47;9.85;;;1.10;;
67363;SDS011;54250;45.572;38.086;2022-09-03T07:43:13;6.38;;;1.10;;
67363;SDS011;54250;45.572;38.086;2022-09-03T07:45:39;3.72;;;1.20;;
67363;SDS011;54250;45.572;38.086;2022-09-03T07:48:05;12.25;;;1.27;;
67363;SDS011;54250;45.572;38.086;2022-09-03T07:50:32;6.65;;;1.20;;
67363;SDS011;54250;45.572;38.086;2022-09-03T07:53:03;5.65;;;1.20;;
67363;SDS011;54250;45.572;38.086;2022-09-03T07:55:29;2.60;;;1.40;;
67363;SDS011;54250;45.572;38.086;2022-09-03T07:57:55;3.40;;;0.93;;
67363;SDS011;54250;45.572;38.086;2022-09-03T08:00:24;6.78;;;1.20;;
67363;SDS011;54250;45.572;38.086;2022-09-03T08:02:51;5.00;;;1.23;;
67363;SDS011;54250;45.572;38.086;2022-09-03T08:05:17;10.70;;;1.35;;
67363;SDS011;54250;45.572;38.086;2022-09-03T08:07:45;7.53;;;1.10;;
67363;SDS011;54250;45.572;38.086;2022-09-03T08:10:13;6.78;;;1.55;;
67363;SDS011;54250;45.572;38.086;2022-09-03T08:12:41;5.20;;;0.82;;
67363;SDS011;54250;45.572;38.086;2022-09-03T08:15:07;11.75;;;1.75;;
67363;SDS011;54250;45.572;38.086;2022-09-03T08:17:33;11.07;;;1.30;;
67363;SDS011;54250;45.572;38.086;2022-09-03T08:19:59;10.35;;;1.30;;
67363;SDS011;54250;45.572;38.086;2022-09-03T08:22:25;6.30;;;1.73;;
67363;SDS011;54250;45.572;38.086;2022-09-03T08:24:52;4.10;;;1.10;;
67363;SDS011;54250;45.572;38.086;2022-09-03T08:27:20;12.75;;;1.40;;
67363;SDS011;54250;45.572;38.086;2022-09-03T08:29:49;1.10;;;0.80;;
67363;SDS011;54250;45.572;38.086;2022-09-03T08:32:15;9.57;;;1.13;;
67363;SDS011;54250;45.572;38.086;2022-09-03T08:34:41;12.27;;;1.25;;
67363;SDS011;54250;45.572;38.086;2022-09-03T08:37:07;8.43;;;1.25;;
67363;SDS011;54250;45.572;38.086;2022-09-03T08:39:36;10.50;;;1.40;;
67363;SDS011;54250;45.572;38.086;2022-09-03T08:57:36;3.53;;;1.70;;
67363;SDS011;54250;45.572;38.086;2022-09-03T09:05:50;15.00;;;1.65;;
67363;SDS011;54250;45.572;38.086;2022-09-03T09:08:47;3.80;;;1.15;;
67363;SDS011;54250;45.572;38.086;2022-09-03T09:11:45;5.15;;;1.50;;
67363;SDS011;54250;45.572;38.086;2022-09-03T09:22:41;10.85;;;1.35;;
67363;SDS011;54250;45.572;38.086;2022-09-03T09:25:18;9.07;;;1.60;;
67363;SDS011;54250;45.572;38.086;2022-09-03T09:27:57;7.88;;;1.35;;
67363;SDS011;54250;45.572;38.086;2022-09-03T09:30:29;6.15;;;1.70;;
67363;SDS011;54250;45.572;38.086;2022-09-03T09:32:57;5.90;;;1.95;;
67363;SDS011;54250;45.572;38.086;2022-09-03T09:35:24;5.75;;;1.58;;
67363;SDS011;54250;45.572;38.086;2022-09-03T09:37:52;14.63;;;1.65;;
67363;SDS011;54250;45.572;38.086;2022-09-03T09:40:26;13.23;;;2.03;;
67363;SDS011;54250;45.572;38.086;2022-09-03T09:45:43;4.47;;;1.43;;
67363;SDS011;54250;45.572;38.086;2022-09-03T09:48:17;8.85;;;1.45;;
67363;SDS011;54250;45.572;38.086;2022-09-03T09:51:05;4.80;;;1.10;;
67363;SDS011;54250;45.572;38.086;2022-09-03T09:53:36;6.63;;;1.42;;
67363;SDS011;54250;45.572;38.086;2022-09-03T09:56:03;9.43;;;1.70;;
67363;SDS011;54250;45.572;38.086;2022-09-03T09:58:31;8.57;;;1.60;;
67363;SDS011;54250;45.572;38.086;2022-09-03T10:01:03;6.88;;;1.33;;
67363;SDS011;54250;45.572;38.086;2022-09-03T10:03:39;9.10;;;1.17;;
67363;SDS011;54250;45.572;38.086;2022-09-03T10:06:13;6.75;;;1.38;;
67363;SDS011;54250;45.572;38.086;2022-09-03T10:09:06;6.47;;;1.40;;
67363;SDS011;54250;45.572;38.086;2022-09-03T10:11:33;17.65;;;1.35;;
67363;SDS011;54250;45.572;38.086;2022-09-03T10:14:05;9.27;;;1.70;;
67363;SDS011;54250;45.572;38.086;2022-09-03T10:16:34;12.23;;;1.90;;
67363;SDS011;54250;45.572;38.086;2022-09-03T10:19:12;9.75;;;1.55;;
67363;SDS011;54250;45.572;38.086;2022-09-03T10:22:02;12.23;;;1.65;;
67363;SDS011;54250;45.572;38.086;2022-09-03T10:27:07;7.10;;;1.37;;
67363;SDS011;54250;45.572;38.086;2022-09-03T10:29:38;2.60;;;1.27;;
67363;SDS011;54250;45.572;38.086;2022-09-03T10:46:00;9.10;;;1.65;;
67363;SDS011;54250;45.572;38.086;2022-09-03T10:51:18;19.15;;;1.60;;
67363;SDS011;54250;45.572;38.086;2022-09-03T10:54:11;6.13;;;1.77;;
67363;SDS011;54250;45.572;38.086;2022-09-03T10:56:52;5.85;;;1.48;;
67363;SDS011;54250;45.572;38.086;2022-09-03T10:59:38;20.30;;;1.75;;
67363;SDS011;54250;45.572;38.086;2022-09-03T11:05:30;8.68;;;1.85;;
67363;SDS011;54250;45.572;38.086;2022-09-03T11:11:01;4.35;;;1.90;;
67363;SDS011;54250;45.572;38.086;2022-09-03T11:14:18;8.30;;;1.80;;
67363;SDS011;54250;45.572;38.086;2022-09-03T11:16:43;12.73;;;2.10;;
67363;SDS011;54250;45.572;38.086;2022-09-03T11:19:16;5.90;;;1.40;;
67363;SDS011;54250;45.572;38.086;2022-09-03T11:21:45;7.93;;;1.65;;
67363;SDS011;54250;45.572;38.086;2022-09-03T11:24:21;16.52;;;2.28;;
67363;SDS011;54250;45.572;38.086;2022-09-03T11:29:58;8.35;;;2.03;;
67363;SDS011;54250;45.572;38.086;2022-09-03T11:35:24;18.30;;;1.92;;
67363;SDS011;54250;45.572;38.086;2022-09-03T11:38:03;10.30;;;1.80;;
67363;SDS011;54250;45.572;38.086;2022-09-03T11:40:34;27.27;;;2.22;;
67363;SDS011;54250;45.572;38.086;2022-09-03T11:43:11;8.77;;;2.00;;
67363;SDS011;54250;45.572;38.086;2022-09-03T11:48:53;4.30;;;1.52;;
67363;SDS011;54250;45.572;38.086;2022-09-03T11:51:32;14.25;;;2.10;;
67363;SDS011;54250;45.572;38.086;2022-09-03T11:56:37;12.63;;;2.30;;
67363;SDS011;54250;45.572;38.086;2022-09-03T12:01:43;5.80;;;1.80;;
67363;SDS011;54250;45.572;38.086;2022-09-03T12:04:21;13.13;;;2.13;;
67363;SDS011;54250;45.572;38.086;2022-09-03T12:07:01;3.65;;;2.00;;
67363;SDS011;54250;45.572;38.086;2022-09-03T12:18:06;14.82;;;1.92;;
67363;SDS011;54250;45.572;38.086;2022-09-03T12:20:47;7.88;;;1.70;;
67363;SDS011;54250;45.572;38.086;2022-09-03T12:23:41;5.60;;;2.42;;
67363;SDS011;54250;45.572;38.086;2022-09-03T12:26:13;15.60;;;2.08;;
67363;SDS011;54250;45.572;38.086;2022-09-03T12:28:55;10.88;;;1.98;;
67363;SDS011;54250;45.572;38.086;2022-09-03T12:36:23;16.58;;;2.00;;
67363;SDS011;54250;45.572;38.086;2022-09-03T12:38:51;14.60;;;2.38;;
67363;SDS011;54250;45.572;38.086;2022-09-03T12:41:21;15.18;;;1.60;;
67363;SDS011;54250;45.572;38.086;2022-09-03T12:43:53;11.13;;;1.40;;
67363;SDS011;54250;45.572;38.086;2022-09-03T12:46:21;22.85;;;2.15;;
67363;SDS011;54250;45.572;38.086;2022-09-03T12:48:53;18.20;;;2.35;;
67363;SDS011;54250;45.572;38.086;2022-09-03T12:51:21;9.13;;;2.00;;
67363;SDS011;54250;45.572;38.086;2022-09-03T12:53:48;7.93;;;1.50;;
67363;SDS011;54250;45.572;38.086;2022-09-03T12:56:16;13.85;;;1.80;;
67363;SDS011;54250;45.572;38.086;2022-09-03T12:58:50;15.00;;;2.33;;
67363;SDS011;54250;45.572;38.086;2022-09-03T13:01:27;14.82;;;2.17;;
67363;SDS011;54250;45.572;38.086;2022-09-03T13:06:34;3.03;;;1.48;;
67363;SDS011;54250;45.572;38.086;2022-09-03T13:09:11;5.47;;;1.48;;
67363;SDS011;54250;45.572;38.086;2022-09-03T13:11:38;14.15;;;1.60;;
67363;SDS011;54250;45.572;38.086;2022-09-03T13:14:06;15.00;;;2.05;;
67363;SDS011;54250;45.572;38.086;2022-09-03T13:24:13;9.20;;;1.60;;
67363;SDS011;54250;45.572;38.086;2022-09-03T13:30:07;27.23;;;2.17;;
67363;SDS011;54250;45.572;38.086;2022-09-03T13:35:16;22.63;;;2.10;;
67363;SDS011;54250;45.572;38.086;2022-09-03T13:41:12;4.18;;;1.35;;
67363;SDS011;54250;45.572;38.086;2022-09-03T13:52:07;10.65;;;1.58;;
67363;SDS011;54250;45.572;38.086;2022-09-03T13:58:30;14.70;;;2.17;;
67363;SDS011;54250;45.572;38.086;2022-09-03T14:03:46;13.52;;;1.45;;
67363;SDS011;54250;45.572;38.086;2022-09-03T14:17:16;20.17;;;2.22;;
67363;SDS011;54250;45.572;38.086;2022-09-03T14:25:31;13.27;;;1.95;;
67363;SDS011;54250;45.572;38.086;2022-09-03T14:28:13;8.07;;;1.85;;
67363;SDS011;54250;45.572;38.086;2022-09-03T14:30:59;14.70;;;2.35;;
67363;SDS011;54250;45.572;38.086;2022-09-03T14:33:46;24.25;;;2.40;;
67363;SDS011;54250;45.572;38.086;2022-09-03T14:42:07;7.28;;;1.85;;
67363;SDS011;54250;45.572;38.086;2022-09-03T15:01:28;17.58;;;2.67;;
67363;SDS011;54250;45.572;38.086;2022-09-03T15:06:54;35.70;;;9.27;;
67363;SDS011;54250;45.572;38.086;2022-09-03T15:12:47;30.90;;;4.45;;
67363;SDS011;54250;45.572;38.086;2022-09-03T15:15:12;29.10;;;5.68;;
67363;SDS011;54250;45.572;38.086;2022-09-03T15:18:01;28.95;;;5.25;;
67363;SDS011;54250;45.572;38.086;2022-09-03T15:23:29;33.35;;;4.68;;
67363;SDS011;54250;45.572;38.086;2022-09-03T15:32:05;30.58;;;4.47;;
67363;SDS011;54250;45.572;38.086;2022-09-03T15:37:38;23.85;;;2.95;;
67363;SDS011;54250;45.572;38.086;2022-09-03T15:42:51;23.85;;;2.92;;
67363;SDS011;54250;45.572;38.086;2022-09-03T15:48:22;28.80;;;2.95;;
67363;SDS011;54250;45.572;38.086;2022-09-03T15:53:59;17.95;;;3.92;;
67363;SDS011;54250;45.572;38.086;2022-09-03T15:56:36;33.70;;;3.25;;
67363;SDS011;54250;45.572;38.086;2022-09-03T16:01:56;22.10;;;2.72;;
67363;SDS011;54250;45.572;38.086;2022-09-03T16:04:26;38.63;;;2.70;;
67363;SDS011;54250;45.572;38.086;2022-09-03T16:07:01;22.95;;;3.08;;
67363;SDS011;54250;45.572;38.086;2022-09-03T16:09:44;24.42;;;3.25;;
67363;SDS011;54250;45.572;38.086;2022-09-03T16:15:19;52.33;;;4.35;;
67363;SDS011;54250;45.572;38.086;2022-09-03T16:17:55;42.83;;;4.55;;
67363;SDS011;54250;45.572;38.086;2022-09-03T16:22:59;29.70;;;3.50;;
67363;SDS011;54250;45.572;38.086;2022-09-03T16:25:34;41.45;;;3.67;;
67363;SDS011;54250;45.572;38.086;2022-09-03T16:28:18;19.58;;;3.25;;
67363;SDS011;54250;45.572;38.086;2022-09-03T16:31:18;21.75;;;3.15;;
67363;SDS011;54250;45.572;38.086;2022-09-03T16:51:04;67.85;;;22.55;;
67363;SDS011;54250;45.572;38.086;2022-09-03T16:59:22;89.20;;;32.17;;
67363;SDS011;54250;45.572;38.086;2022-09-03T17:19:05;45.50;;;14.10;;
67363;SDS011;54250;45.572;38.086;2022-09-03T17:22:05;33.08;;;11.05;;
67363;SDS011;54250;45.572;38.086;2022-09-03T17:25:23;32.40;;;8.45;;
67363;SDS011;54250;45.572;38.086;2022-09-03T17:31:09;17.15;;;4.65;;
67363;SDS011;54250;45.572;38.086;2022-09-03T17:34:01;44.00;;;4.53;;
67363;SDS011;54250;45.572;38.086;2022-09-03T17:36:29;35.58;;;6.35;;
67363;SDS011;54250;45.572;38.086;2022-09-03T17:42:11;18.42;;;3.63;;
67363;SDS011;54250;45.572;38.086;2022-09-03T17:50:28;22.70;;;4.53;;
67363;SDS011;54250;45.572;38.086;2022-09-03T17:52:59;24.65;;;4.43;;
67363;SDS011;54250;45.572;38.086;2022-09-03T18:03:26;18.92;;;3.80;;
